Time;durP1;ratioP1;P1;durP2;ratioP2;P2;SDS_P1;SDS_P2;PMS_P1;PMS_P2;Temp;Humidity;BMP_temperature;BMP_pressure;BME280_temperature;BME280_humidity;BME280_pressure;Samples;Min_cycle;Max_cycle;Signal;HPM_P1;HPM_P2
2021/07/26 00:00:57;;;;;;;8.57;5.20;;;21.70;75.10;;;;;;5118984;28;20023;-70
2021/07/26 00:03:23;;;;;;;6.13;5.38;;;21.70;75.80;;;;;;5119414;28;20048;-70
2021/07/26 00:05:59;;;;;;;10.00;5.75;;;21.70;77.70;;;;;;5119295;28;20339;-71
2021/07/26 00:08:25;;;;;;;9.05;5.25;;;21.80;77.60;;;;;;5119120;28;20023;-70
2021/07/26 00:11:02;;;;;;;8.38;5.60;;;21.70;78.60;;;;;;5118871;28;20411;-70
2021/07/26 00:13:28;;;;;;;8.57;5.32;;;21.70;79.40;;;;;;5119176;28;20034;-70
2021/07/26 00:15:54;;;;;;;10.70;5.95;;;21.70;78.90;;;;;;5119107;28;20319;-70
2021/07/26 00:18:19;;;;;;;5.93;5.22;;;21.60;79.90;;;;;;5119012;28;20362;-70
2021/07/26 00:20:45;;;;;;;9.27;5.18;;;21.60;78.80;;;;;;5118576;28;20115;-71
2021/07/26 00:23:11;;;;;;;10.43;5.43;;;21.40;79.00;;;;;;5119013;28;20024;-70
2021/07/26 00:25:36;;;;;;;11.15;5.45;;;21.30;79.30;;;;;;5118915;28;20028;-71
2021/07/26 00:28:02;;;;;;;11.68;6.57;;;21.20;79.50;;;;;;5118552;28;20031;-70
2021/07/26 00:30:28;;;;;;;12.98;5.70;;;21.10;79.90;;;;;;5118447;28;20032;-71
2021/07/26 00:32:54;;;;;;;8.85;4.82;;;21.10;80.30;;;;;;5118537;28;20055;-70
2021/07/26 00:35:19;;;;;;;9.00;5.85;;;21.00;80.10;;;;;;5118676;28;20024;-71
2021/07/26 00:37:45;;;;;;;7.95;5.75;;;21.00;81.10;;;;;;5118730;28;20031;-71
2021/07/26 00:40:11;;;;;;;8.00;5.78;;;21.00;81.90;;;;;;5118056;28;20483;-70
2021/07/26 00:42:37;;;;;;;8.40;5.65;;;21.00;82.60;;;;;;5118641;28;20088;-70
2021/07/26 00:45:04;;;;;;;10.70;6.43;;;21.00;82.70;;;;;;5118204;28;20442;-71
2021/07/26 00:47:30;;;;;;;10.35;5.78;;;21.00;82.00;;;;;;5118157;28;20423;-71
2021/07/26 00:49:56;;;;;;;6.22;4.95;;;21.00;81.60;;;;;;5118354;28;20042;-70
2021/07/26 00:52:23;;;;;;;11.18;5.70;;;20.90;81.30;;;;;;5118132;28;20024;-71
2021/07/26 00:54:49;;;;;;;6.57;5.00;;;20.90;80.70;;;;;;5118067;28;20027;-71
2021/07/26 00:57:15;;;;;;;6.40;4.93;;;20.80;80.60;;;;;;5118000;28;20031;-71
2021/07/26 00:59:41;;;;;;;8.95;4.75;;;20.90;80.00;;;;;;5118142;28;20040;-70
2021/07/26 01:02:07;;;;;;;7.68;5.20;;;20.90;79.80;;;;;;5118230;28;20028;-71
2021/07/26 01:04:33;;;;;;;8.27;4.70;;;21.00;79.10;;;;;;5117855;28;20028;-71
2021/07/26 01:06:59;;;;;;;9.80;5.70;;;21.00;78.90;;;;;;5117789;28;20027;-71
2021/07/26 01:09:25;;;;;;;9.85;5.72;;;21.00;77.90;;;;;;5118087;28;20399;-70
2021/07/26 01:11:51;;;;;;;6.00;4.72;;;21.10;76.60;;;;;;5117780;28;20024;-70
2021/07/26 01:14:17;;;;;;;8.63;5.15;;;21.30;77.40;;;;;;5117700;28;20431;-70
2021/07/26 01:16:44;;;;;;;5.78;4.63;;;21.40;76.50;;;;;;5117944;28;20023;-71
2021/07/26 01:19:10;;;;;;;11.35;5.22;;;21.40;76.00;;;;;;5117874;28;20365;-70
2021/07/26 01:21:36;;;;;;;11.20;4.43;;;21.50;75.20;;;;;;5117968;28;20023;-70
2021/07/26 01:24:02;;;;;;;11.52;4.65;;;21.50;75.80;;;;;;5117545;28;20130;-70
2021/07/26 01:26:29;;;;;;;7.95;4.63;;;21.50;76.10;;;;;;5117846;28;20023;-70
2021/07/26 01:28:57;;;;;;;8.57;4.55;;;21.50;75.70;;;;;;5117698;28;20319;-70
2021/07/26 01:31:23;;;;;;;11.23;5.13;;;21.40;74.90;;;;;;5117714;28;20043;-71
2021/07/26 01:33:51;;;;;;;5.93;4.28;;;21.40;74.60;;;;;;5117405;28;20414;-71
2021/07/26 01:36:18;;;;;;;9.27;4.88;;;21.40;75.20;;;;;;5117660;28;20036;-70
2021/07/26 01:38:45;;;;;;;8.40;5.00;;;21.50;74.60;;;;;;5117106;28;20082;-70
2021/07/26 01:41:12;;;;;;;7.00;4.40;;;21.50;73.80;;;;;;5117560;28;20055;-70
2021/07/26 01:43:50;;;;;;;5.80;4.65;;;21.60;73.80;;;;;;5117571;28;20320;-71
2021/07/26 01:46:30;;;;;;;8.65;4.68;;;21.60;74.50;;;;;;5117144;28;20076;-70
2021/07/26 01:49:11;;;;;;;8.23;3.97;;;21.70;73.00;;;;;;5117171;28;20080;-71
2021/07/26 01:51:46;;;;;;;7.72;4.93;;;21.70;72.90;;;;;;5117209;28;20475;-71
2021/07/26 01:54:12;;;;;;;6.82;4.60;;;21.80;72.50;;;;;;5117462;28;20019;-71
2021/07/26 01:56:38;;;;;;;6.00;4.20;;;21.90;73.00;;;;;;5117109;28;20027;-71
2021/07/26 01:59:06;;;;;;;6.80;4.32;;;21.90;72.50;;;;;;5116965;28;20031;-71
2021/07/26 02:01:32;;;;;;;7.18;4.32;;;21.90;71.60;;;;;;5117075;28;20430;-70
2021/07/26 02:03:57;;;;;;;6.82;4.15;;;21.90;71.10;;;;;;5117047;28;20020;-70
2021/07/26 02:06:23;;;;;;;5.95;3.92;;;22.00;70.20;;;;;;5116990;28;20028;-70
2021/07/26 02:08:49;;;;;;;9.48;4.70;;;22.10;70.40;;;;;;5117362;28;20039;-70
2021/07/26 02:11:15;;;;;;;8.38;4.82;;;22.10;70.50;;;;;;5117270;28;20020;-70
2021/07/26 02:13:40;;;;;;;8.57;4.50;;;22.10;70.40;;;;;;5117341;28;20032;-70
2021/07/26 02:16:10;;;;;;;7.93;4.50;;;22.10;70.40;;;;;;5116917;28;20028;-71
2021/07/26 02:18:36;;;;;;;9.10;4.55;;;22.10;71.20;;;;;;5116843;28;20031;-71
2021/07/26 02:21:02;;;;;;;9.60;4.18;;;22.10;71.30;;;;;;5117145;28;20024;-70
2021/07/26 02:23:28;;;;;;;7.95;3.92;;;22.00;71.90;;;;;;5116974;28;20035;-70
2021/07/26 02:25:53;;;;;;;10.55;4.50;;;21.90;72.20;;;;;;5117177;28;20115;-70
2021/07/26 02:28:19;;;;;;;8.38;4.70;;;21.70;73.10;;;;;;5117111;28;20100;-71
2021/07/26 02:30:45;;;;;;;6.75;4.75;;;21.60;73.50;;;;;;5117148;28;20406;-70
2021/07/26 02:33:10;;;;;;;8.80;4.63;;;21.40;73.80;;;;;;5117169;28;20324;-70
2021/07/26 02:35:36;;;;;;;7.43;4.55;;;21.30;74.20;;;;;;5117078;28;20020;-71
2021/07/26 02:38:02;;;;;;;8.90;4.38;;;21.30;74.50;;;;;;5116877;28;20115;-71
2021/07/26 02:40:28;;;;;;;6.90;4.90;;;21.30;73.90;;;;;;5116904;28;20482;-71
2021/07/26 02:42:55;;;;;;;6.43;4.70;;;21.40;73.50;;;;;;5116808;28;20055;-70
2021/07/26 02:45:21;;;;;;;7.75;4.40;;;21.60;72.30;;;;;;5116984;28;20043;-70
2021/07/26 02:47:47;;;;;;;7.63;4.65;;;21.70;71.60;;;;;;5116964;28;20020;-70
2021/07/26 02:50:13;;;;;;;7.53;4.70;;;21.80;71.30;;;;;;5116864;28;20463;-70
2021/07/26 02:52:38;;;;;;;9.98;4.82;;;21.90;70.50;;;;;;5116610;28;20020;-70
2021/07/26 02:55:05;;;;;;;7.15;4.07;;;21.90;70.90;;;;;;5116567;28;20077;-70
2021/07/26 02:57:32;;;;;;;10.93;4.20;;;22.10;69.20;;;;;;5116851;28;20083;-70
2021/07/26 02:59:58;;;;;;;5.88;4.22;;;22.20;69.00;;;;;;5119459;28;20031;-70
2021/07/26 03:02:24;;;;;;;6.95;4.22;;;22.30;68.90;;;;;;5120281;28;20430;-70
2021/07/26 03:04:50;;;;;;;11.63;5.00;;;22.30;70.40;;;;;;5120215;28;20023;-70
2021/07/26 03:07:16;;;;;;;12.85;4.63;;;22.20;70.80;;;;;;5120393;28;20020;-70
2021/07/26 03:09:41;;;;;;;6.68;3.97;;;22.10;70.70;;;;;;5120354;28;20404;-70
2021/07/26 03:12:07;;;;;;;11.32;4.30;;;22.00;72.40;;;;;;5120080;28;20024;-70
2021/07/26 03:14:33;;;;;;;11.13;5.07;;;21.90;72.30;;;;;;5120314;28;20038;-70
2021/07/26 03:17:03;;;;;;;6.50;4.25;;;21.80;72.50;;;;;;5120012;28;20484;-70
2021/07/26 03:19:29;;;;;;;7.57;4.53;;;21.70;73.00;;;;;;5119759;28;20027;-70
2021/07/26 03:22:35;;;;;;;6.60;4.53;;;21.60;73.50;;;;;;5120207;28;20091;-70
2021/07/26 03:25:01;;;;;;;8.60;4.68;;;21.50;74.30;;;;;;5120183;28;20096;-70
2021/07/26 03:27:26;;;;;;;8.85;4.95;;;21.40;74.50;;;;;;5119717;28;20027;-70
2021/07/26 03:29:52;;;;;;;6.78;4.78;;;21.30;74.10;;;;;;5119641;28;20035;-70
2021/07/26 03:32:17;;;;;;;11.27;5.22;;;21.30;74.30;;;;;;5120044;28;20023;-70
2021/07/26 03:34:43;;;;;;;9.27;5.22;;;21.20;75.00;;;;;;5119640;28;20319;-70
2021/07/26 03:37:09;;;;;;;7.22;4.55;;;21.20;75.30;;;;;;5119874;28;20031;-70
2021/07/26 03:39:34;;;;;;;8.98;4.78;;;21.30;73.50;;;;;;5119285;28;20168;-70
2021/07/26 03:42:00;;;;;;;7.82;4.85;;;21.50;73.20;;;;;;5119841;28;20352;-70
2021/07/26 03:44:27;;;;;;;9.73;4.57;;;21.60;72.70;;;;;;5119705;28;20315;-70
2021/07/26 03:46:52;;;;;;;8.50;4.43;;;21.70;72.50;;;;;;5119694;28;20028;-70
2021/07/26 03:49:18;;;;;;;6.50;4.72;;;21.80;71.50;;;;;;5119573;28;20019;-70
2021/07/26 03:51:44;;;;;;;6.45;4.57;;;21.90;72.50;;;;;;5119694;28;20016;-70
2021/07/26 03:54:09;;;;;;;12.32;4.97;;;21.90;73.20;;;;;;5119279;28;20331;-70
2021/07/26 03:56:35;;;;;;;7.18;4.18;;;21.80;72.10;;;;;;5119571;28;20047;-70
2021/07/26 03:59:02;;;;;;;14.48;4.60;;;21.80;71.80;;;;;;5119399;28;20366;-70
2021/07/26 04:01:27;;;;;;;10.02;4.85;;;21.90;71.70;;;;;;5119397;28;20035;-70
2021/07/26 04:03:53;;;;;;;7.20;5.38;;;21.90;72.00;;;;;;5119443;28;20030;-70
2021/07/26 04:06:20;;;;;;;5.57;4.47;;;22.00;72.30;;;;;;5119058;28;20445;-70
2021/07/26 04:08:49;;;;;;;8.52;5.07;;;22.00;72.50;;;;;;5118813;28;20110;-70
2021/07/26 04:11:20;;;;;;;8.07;4.85;;;22.00;72.70;;;;;;5118575;28;20038;-70
2021/07/26 04:13:51;;;;;;;8.68;5.22;;;22.10;72.70;;;;;;5119229;28;20091;-70
2021/07/26 04:16:16;;;;;;;7.03;5.38;;;22.10;72.80;;;;;;5118899;28;20411;-70
2021/07/26 04:18:43;;;;;;;10.90;5.20;;;22.20;73.10;;;;;;5118762;28;20059;-70
2021/07/26 04:21:09;;;;;;;11.90;4.70;;;22.20;72.90;;;;;;5118984;28;20031;-70
2021/07/26 04:23:35;;;;;;;10.13;4.93;;;22.20;73.60;;;;;;5118734;28;20020;-70
2021/07/26 04:26:01;;;;;;;7.82;5.45;;;22.20;73.40;;;;;;5118960;28;20284;-70
2021/07/26 04:28:27;;;;;;;7.55;5.13;;;22.20;74.10;;;;;;5118561;28;20044;-70
2021/07/26 04:30:52;;;;;;;12.02;5.38;;;22.30;73.30;;;;;;5118864;28;20038;-70
2021/07/26 04:33:18;;;;;;;9.13;5.53;;;22.30;73.10;;;;;;5118840;28;20102;-70
2021/07/26 04:35:43;;;;;;;5.90;5.00;;;22.40;73.20;;;;;;5118448;28;20028;-70
2021/07/26 04:38:09;;;;;;;9.02;4.78;;;22.40;74.50;;;;;;5118054;28;20094;-70
2021/07/26 04:40:35;;;;;;;8.90;5.00;;;22.30;72.50;;;;;;5118582;28;20042;-70
2021/07/26 04:43:00;;;;;;;7.40;5.10;;;22.40;74.10;;;;;;5118389;28;20315;-70
2021/07/26 04:45:26;;;;;;;11.75;5.60;;;22.40;75.90;;;;;;5118250;28;20152;-70
2021/07/26 04:47:52;;;;;;;7.70;5.70;;;22.40;76.50;;;;;;5118500;28;20039;-70
2021/07/26 04:50:18;;;;;;;9.48;5.55;;;22.30;76.60;;;;;;5118428;28;20319;-70
2021/07/26 04:52:44;;;;;;;9.10;5.18;;;22.30;76.50;;;;;;5118141;28;20024;-70
2021/07/26 04:55:10;;;;;;;9.85;5.32;;;22.20;76.70;;;;;;5118361;28;20058;-70
2021/07/26 04:57:36;;;;;;;7.55;4.85;;;22.20;78.00;;;;;;5118368;28;20020;-70
2021/07/26 05:00:03;;;;;;;7.78;5.20;;;22.10;78.50;;;;;;5117855;28;20105;-70
2021/07/26 05:02:29;;;;;;;9.77;5.53;;;22.10;78.80;;;;;;5117978;28;20136;-70
2021/07/26 05:04:54;;;;;;;10.43;6.45;;;22.10;79.30;;;;;;5117858;28;20040;-70
2021/07/26 05:07:20;;;;;;;7.75;5.50;;;22.10;79.50;;;;;;5118098;28;20028;-70
2021/07/26 05:09:46;;;;;;;9.95;5.22;;;22.10;78.50;;;;;;5117984;28;20438;-70
2021/07/26 05:12:12;;;;;;;7.43;5.10;;;22.10;78.50;;;;;;5118160;28;20143;-70
2021/07/26 05:14:42;;;;;;;9.18;5.45;;;22.20;77.40;;;;;;5118021;28;20084;-70
2021/07/26 05:17:08;;;;;;;8.02;4.88;;;22.30;74.60;;;;;;5118303;28;20028;-70
2021/07/26 05:19:34;;;;;;;8.10;5.72;;;22.50;75.00;;;;;;5117812;28;20037;-70
2021/07/26 05:22:01;;;;;;;8.57;5.10;;;22.60;74.40;;;;;;5117328;28;20038;-70
2021/07/26 05:24:26;;;;;;;10.27;5.65;;;22.70;74.30;;;;;;5117892;28;20307;-70
2021/07/26 05:26:59;;;;;;;21.88;5.65;;;22.80;73.70;;;;;;5117903;28;20027;-70
2021/07/26 05:29:25;;;;;;;9.57;5.00;;;22.90;75.10;;;;;;5117387;28;20031;-70
2021/07/26 05:31:51;;;;;;;7.88;5.45;;;23.00;74.40;;;;;;5117483;28;20027;-70
2021/07/26 05:34:17;;;;;;;9.02;5.63;;;23.00;73.50;;;;;;5117390;28;20020;-70
2021/07/26 05:36:42;;;;;;;11.85;5.90;;;23.00;73.50;;;;;;5117671;28;20028;-70
2021/07/26 05:39:08;;;;;;;13.57;5.90;;;22.90;73.60;;;;;;5117157;28;20126;-70
2021/07/26 05:41:33;;;;;;;9.23;5.82;;;23.10;72.60;;;;;;5117336;28;20020;-70
2021/07/26 05:44:00;;;;;;;7.13;5.05;;;23.10;72.80;;;;;;5117242;28;20051;-70
2021/07/26 05:46:26;;;;;;;8.75;5.00;;;23.20;72.80;;;;;;5117555;28;20019;-71
2021/07/26 05:48:52;;;;;;;8.23;4.97;;;23.30;72.30;;;;;;5117465;28;20035;-70
2021/07/26 05:51:17;;;;;;;9.68;5.25;;;23.40;70.00;;;;;;5117519;28;20403;-70
2021/07/26 05:53:43;;;;;;;7.78;5.03;;;23.50;70.70;;;;;;5117508;28;20031;-70
2021/07/26 05:56:11;;;;;;;10.38;5.80;;;23.70;71.60;;;;;;5116804;28;20415;-70
2021/07/26 05:58:55;;;;;;;7.13;5.00;;;23.80;71.50;;;;;;5117381;28;20055;-70
2021/07/26 06:01:23;;;;;;;8.32;4.70;;;23.90;70.20;;;;;;5117043;28;20034;-70
2021/07/26 06:03:50;;;;;;;10.63;4.47;;;24.10;68.80;;;;;;5117438;28;20075;-70
2021/07/26 06:06:17;;;;;;;5.68;4.63;;;24.20;69.20;;;;;;5117394;28;20020;-71
2021/07/26 06:08:43;;;;;;;7.47;4.45;;;24.50;67.10;;;;;;5117045;28;20039;-71
2021/07/26 06:11:09;;;;;;;8.23;4.82;;;24.70;67.70;;;;;;5117293;28;20032;-71
2021/07/26 06:13:34;;;;;;;7.50;4.75;;;24.80;68.70;;;;;;5117339;28;20084;-71
2021/07/26 06:16:06;;;;;;;7.07;5.10;;;25.10;67.90;;;;;;5117323;28;20103;-70
2021/07/26 06:18:31;;;;;;;14.05;5.10;;;25.30;71.00;;;;;;5116912;28;20441;-70
2021/07/26 06:20:57;;;;;;;7.93;4.93;;;25.70;70.10;;;;;;5116862;28;20027;-71
2021/07/26 06:23:22;;;;;;;8.20;5.40;;;25.90;69.50;;;;;;5117259;28;20084;-71
2021/07/26 06:25:48;;;;;;;6.65;5.18;;;26.00;68.00;;;;;;5117205;28;20093;-71
2021/07/26 06:28:14;;;;;;;12.98;4.50;;;25.90;68.40;;;;;;5116793;28;20053;-71
2021/07/26 06:30:39;;;;;;;7.45;4.50;;;25.60;67.80;;;;;;5117082;28;20055;-71
2021/07/26 06:33:09;;;;;;;8.50;4.47;;;25.30;68.70;;;;;;5118621;28;20051;-71
2021/07/26 06:35:35;;;;;;;7.13;4.22;;;24.90;70.80;;;;;;5121105;28;20023;-70
2021/07/26 06:38:01;;;;;;;8.60;4.20;;;24.60;68.90;;;;;;5120662;28;20450;-70
2021/07/26 06:40:28;;;;;;;7.07;4.50;;;24.10;70.50;;;;;;5120915;28;20063;-70
2021/07/26 06:42:54;;;;;;;6.90;4.43;;;23.80;69.90;;;;;;5121049;28;20027;-70
2021/07/26 06:45:20;;;;;;;9.93;4.90;;;23.50;70.70;;;;;;5120915;28;20077;-70
2021/07/26 06:47:45;;;;;;;13.27;5.70;;;23.40;71.60;;;;;;5120890;28;20373;-70
2021/07/26 06:50:11;;;;;;;9.80;4.85;;;23.50;71.50;;;;;;5120718;28;20019;-70
2021/07/26 06:52:37;;;;;;;9.05;5.35;;;23.50;70.80;;;;;;5120817;28;20032;-70
2021/07/26 06:55:03;;;;;;;6.80;4.47;;;23.60;71.90;;;;;;5120771;28;20323;-70
2021/07/26 06:57:29;;;;;;;10.45;4.70;;;23.60;71.90;;;;;;5120717;28;20036;-71
2021/07/26 06:59:54;;;;;;;9.93;4.78;;;23.60;71.90;;;;;;5120535;28;20102;-70
2021/07/26 07:02:20;;;;;;;6.68;4.80;;;23.40;72.00;;;;;;5120670;28;20031;-70
2021/07/26 07:04:45;;;;;;;8.05;4.95;;;23.20;72.70;;;;;;5120217;28;20046;-70
2021/07/26 07:07:11;;;;;;;8.00;5.20;;;23.00;72.90;;;;;;5120566;28;20106;-70
2021/07/26 07:09:37;;;;;;;6.72;4.65;;;22.90;74.10;;;;;;5120586;28;20103;-70
2021/07/26 07:12:02;;;;;;;9.15;4.72;;;22.80;75.20;;;;;;5120178;28;20427;-70
2021/07/26 07:14:29;;;;;;;10.68;4.95;;;22.80;74.70;;;;;;5120356;28;20023;-70
2021/07/26 07:16:55;;;;;;;6.35;5.25;;;22.70;75.10;;;;;;5120358;28;20078;-70
2021/07/26 07:19:20;;;;;;;6.78;5.10;;;22.70;75.80;;;;;;5120132;28;20411;-70
2021/07/26 07:21:46;;;;;;;8.43;5.75;;;22.60;77.80;;;;;;5119996;28;20034;-70
2021/07/26 07:24:12;;;;;;;11.15;5.15;;;22.60;81.50;;;;;;5120185;28;20023;-70
2021/07/26 07:26:37;;;;;;;8.82;5.60;;;22.50;78.70;;;;;;5120177;28;20418;-70
2021/07/26 07:29:03;;;;;;;8.07;5.18;;;22.30;77.80;;;;;;5120017;28;20020;-70
2021/07/26 07:31:36;;;;;;;13.82;5.57;;;22.10;77.90;;;;;;5119702;28;20038;-70
2021/07/26 07:34:03;;;;;;;8.25;5.10;;;22.10;78.30;;;;;;5120053;28;20028;-70
2021/07/26 07:36:29;;;;;;;10.43;5.93;;;22.30;80.00;;;;;;5119646;28;20031;-70
2021/07/26 07:38:56;;;;;;;7.60;5.20;;;22.60;77.70;;;;;;5119485;28;20055;-70
2021/07/26 07:41:23;;;;;;;8.30;5.90;;;22.60;77.50;;;;;;5119810;28;20032;-70
2021/07/26 07:43:48;;;;;;;6.28;4.68;;;22.50;78.00;;;;;;5119407;28;20027;-70
2021/07/26 07:46:16;;;;;;;8.80;5.30;;;22.50;78.00;;;;;;5119233;28;20020;-70
2021/07/26 07:48:41;;;;;;;7.03;5.00;;;22.80;76.60;;;;;;5119680;28;20020;-70
2021/07/26 07:51:09;;;;;;;7.22;4.65;;;23.50;78.20;;;;;;5119694;28;20051;-70
2021/07/26 07:53:35;;;;;;;6.38;4.93;;;23.90;74.40;;;;;;5119358;28;20077;-70
2021/07/26 07:56:01;;;;;;;11.90;5.80;;;25.00;73.30;;;;;;5119247;28;20115;-70
2021/07/26 07:58:27;;;;;;;5.47;4.75;;;26.00;68.90;;;;;;5119501;28;20027;-70
2021/07/26 08:00:56;;;;;;;10.77;5.10;;;27.00;67.00;;;;;;5119418;28;20130;-71
2021/07/26 08:03:22;;;;;;;6.38;5.13;;;28.00;64.50;;;;;;5119159;28;20434;-69
2021/07/26 08:05:48;;;;;;;8.57;4.47;;;29.00;62.20;;;;;;5119073;28;20024;-70
2021/07/26 08:08:14;;;;;;;4.88;4.25;;;29.40;62.00;;;;;;5119333;28;20028;-70
2021/07/26 08:10:40;;;;;;;8.02;4.50;;;29.70;59.20;;;;;;5119302;28;20103;-71
2021/07/26 08:13:06;;;;;;;10.43;4.93;;;29.50;59.70;;;;;;5119276;28;20024;-70
2021/07/26 08:15:32;;;;;;;7.72;4.68;;;30.00;58.10;;;;;;5119168;28;20415;-70
2021/07/26 08:17:57;;;;;;;9.05;4.50;;;30.30;58.00;;;;;;5119145;28;20031;-71
2021/07/26 08:20:23;;;;;;;9.75;4.65;;;30.60;57.50;;;;;;5119136;28;20055;-70
2021/07/26 08:22:48;;;;;;;6.28;4.45;;;30.60;57.00;;;;;;5119024;28;20028;-70
2021/07/26 08:25:15;;;;;;;6.07;4.30;;;30.40;57.80;;;;;;5118772;28;20077;-69
2021/07/26 08:27:57;;;;;;;7.10;4.55;;;30.50;57.80;;;;;;5118971;28;20288;-70
2021/07/26 08:30:29;;;;;;;9.13;4.20;;;30.60;57.90;;;;;;5118835;28;20327;-70
2021/07/26 08:32:55;;;;;;;6.68;4.60;;;30.80;57.00;;;;;;5118586;28;20157;-70
2021/07/26 08:35:22;;;;;;;8.73;5.70;;;30.70;57.60;;;;;;5118473;28;20042;-70
2021/07/26 08:37:48;;;;;;;7.30;4.30;;;30.90;57.60;;;;;;5118611;28;20034;-70
2021/07/26 08:40:14;;;;;;;14.02;4.57;;;31.30;55.40;;;;;;5118097;28;20138;-70
2021/07/26 08:42:40;;;;;;;11.02;4.22;;;31.50;55.30;;;;;;5118366;28;20019;-70
2021/07/26 08:45:09;;;;;;;9.70;4.55;;;31.60;54.70;;;;;;5118277;28;20024;-70
2021/07/26 08:47:38;;;;;;;6.38;4.50;;;31.50;54.80;;;;;;5118235;28;20034;-71
2021/07/26 08:50:05;;;;;;;5.03;4.15;;;31.80;55.30;;;;;;5118411;28;20395;-70
2021/07/26 08:52:36;;;;;;;7.88;4.63;;;32.00;55.60;;;;;;5118511;28;20103;-70
2021/07/26 08:55:02;;;;;;;8.05;4.40;;;32.30;54.30;;;;;;5118480;28;20028;-70
2021/07/26 08:57:29;;;;;;;8.32;4.10;;;32.30;55.50;;;;;;5117008;28;20080;-70
2021/07/26 08:59:55;;;;;;;6.35;4.30;;;32.20;54.90;;;;;;5118164;28;20024;-70
2021/07/26 09:02:21;;;;;;;5.90;4.35;;;32.40;54.20;;;;;;5118346;28;20020;-70
2021/07/26 09:04:47;;;;;;;7.07;4.20;;;32.70;54.50;;;;;;5118224;28;20020;-70
2021/07/26 09:07:13;;;;;;;7.45;4.57;;;32.60;55.20;;;;;;5117900;28;20407;-70
2021/07/26 09:09:47;;;;;;;6.25;3.88;;;32.60;54.60;;;;;;5118037;28;20084;-70
2021/07/26 09:12:33;;;;;;;6.53;4.00;;;32.40;55.70;;;;;;5118192;28;20120;-70
2021/07/26 09:15:06;;;;;;;11.18;4.60;;;32.80;54.70;;;;;;5117719;28;20668;-70
2021/07/26 09:17:41;;;;;;;5.95;3.85;;;32.40;54.20;;;;;;5117968;28;20055;-70
2021/07/26 09:20:08;;;;;;;6.05;4.18;;;31.60;56.00;;;;;;5117517;28;20027;-70
2021/07/26 09:22:43;;;;;;;7.03;3.92;;;31.30;58.00;;;;;;5117955;28;20479;-70
2021/07/26 09:25:20;;;;;;;6.50;3.95;;;31.60;57.30;;;;;;5117908;28;20054;-70
2021/07/26 09:28:10;;;;;;;6.82;3.92;;;31.60;56.30;;;;;;5117560;28;20032;-70
2021/07/26 09:30:55;;;;;;;10.30;4.10;;;31.30;57.00;;;;;;5111928;28;20312;-70
2021/07/26 09:33:23;;;;;;;8.40;3.97;;;31.50;57.10;;;;;;5117809;28;20102;-70
2021/07/26 09:36:03;;;;;;;7.07;4.22;;;31.90;56.40;;;;;;5117383;28;20460;-70
2021/07/26 09:38:29;;;;;;;4.63;3.25;;;31.20;56.50;;;;;;5117383;28;20048;-70
2021/07/26 09:40:54;;;;;;;7.55;4.55;;;31.00;57.40;;;;;;5117558;28;20027;-70
2021/07/26 09:43:22;;;;;;;5.70;4.13;;;31.10;56.50;;;;;;5117693;28;20020;-70
2021/07/26 09:45:49;;;;;;;6.00;3.63;;;31.30;56.20;;;;;;5117283;28;20022;-70
2021/07/26 09:48:17;;;;;;;7.63;3.33;;;31.60;54.60;;;;;;5117189;28;20028;-70
2021/07/26 09:50:47;;;;;;;5.30;3.25;;;32.10;54.90;;;;;;5117491;28;20310;-70
2021/07/26 09:53:13;;;;;;;5.70;3.75;;;32.60;53.70;;;;;;5116268;28;20046;-70
2021/07/26 09:55:41;;;;;;;7.00;3.05;;;33.10;53.90;;;;;;5117168;28;20031;-70
2021/07/26 09:58:09;;;;;;;4.80;3.20;;;33.50;51.60;;;;;;5117407;28;20032;-70
2021/07/26 10:00:36;;;;;;;5.57;3.67;;;33.40;52.20;;;;;;5117392;28;20046;-70
2021/07/26 10:03:05;;;;;;;10.38;4.50;;;33.10;52.90;;;;;;5117439;28;20036;-71
2021/07/26 10:05:32;;;;;;;7.45;4.32;;;33.00;52.30;;;;;;5117370;28;20362;-70
2021/07/26 10:08:01;;;;;;;7.88;3.58;;;32.70;53.40;;;;;;5118523;28;20028;-70
2021/07/26 10:10:27;;;;;;;6.75;3.60;;;32.10;53.80;;;;;;5121562;28;20376;-70
2021/07/26 10:12:54;;;;;;;4.45;3.60;;;31.20;56.10;;;;;;5121628;28;20111;-70
2021/07/26 10:15:20;;;;;;;5.97;3.30;;;31.50;57.10;;;;;;5121220;28;20072;-70
2021/07/26 10:17:50;;;;;;;5.13;3.47;;;31.80;55.10;;;;;;5120873;28;20027;-70
2021/07/26 10:20:20;;;;;;;9.52;4.78;;;31.90;55.50;;;;;;5115469;28;20077;-70
2021/07/26 10:23:11;;;;;;;5.55;3.95;;;32.40;53.70;;;;;;5121398;28;20023;-70
2021/07/26 10:25:47;;;;;;;8.32;4.60;;;33.10;54.90;;;;;;5121353;28;20030;-70
2021/07/26 10:28:43;;;;;;;6.90;4.20;;;33.60;55.00;;;;;;5121286;28;20384;-70
2021/07/26 10:31:27;;;;;;;6.45;3.80;;;33.90;52.00;;;;;;5120884;28;20049;-70
2021/07/26 10:34:08;;;;;;;8.30;4.23;;;33.60;52.70;;;;;;5121203;28;20058;-70
2021/07/26 10:36:43;;;;;;;7.00;3.80;;;33.50;53.40;;;;;;5121173;28;20594;-70
2021/07/26 10:39:09;;;;;;;10.43;4.60;;;33.50;55.40;;;;;;5102513;28;20116;-70
2021/07/26 10:41:47;;;;;;;7.70;3.83;;;33.60;54.60;;;;;;5120644;28;20042;-70
2021/07/26 10:44:12;;;;;;;12.52;4.85;;;33.40;54.30;;;;;;5120955;28;20036;-70
2021/07/26 10:46:53;;;;;;;8.10;4.03;;;33.10;55.10;;;;;;5120621;28;20125;-70
2021/07/26 10:49:39;;;;;;;7.60;4.32;;;32.10;57.00;;;;;;5120499;28;20028;-70
2021/07/26 10:52:05;;;;;;;6.05;4.05;;;31.90;57.40;;;;;;5068724;28;20055;-70
2021/07/26 10:54:34;;;;;;;6.47;4.32;;;31.80;58.70;;;;;;5120767;28;20483;-71
2021/07/26 10:57:04;;;;;;;6.55;4.10;;;32.60;57.30;;;;;;5120778;28;20024;-70
2021/07/26 10:59:30;;;;;;;8.68;4.18;;;32.70;56.20;;;;;;5120504;28;20036;-70
2021/07/26 11:02:03;;;;;;;7.32;4.80;;;33.00;56.40;;;;;;5120678;28;20098;-70
2021/07/26 11:04:34;;;;;;;8.93;4.18;;;32.90;56.50;;;;;;5120614;28;20044;-70
2021/07/26 11:07:02;;;;;;;7.97;4.25;;;32.80;55.70;;;;;;5120262;28;20032;-70
2021/07/26 11:09:32;;;;;;;7.72;4.22;;;32.40;54.80;;;;;;5120610;28;20051;-70
2021/07/26 11:11:59;;;;;;;10.38;4.72;;;32.60;57.20;;;;;;5120501;28;20382;-70
2021/07/26 11:14:25;;;;;;;10.95;4.10;;;32.00;58.10;;;;;;5120080;28;20065;-70
2021/07/26 11:16:55;;;;;;;8.57;4.60;;;32.30;59.60;;;;;;5120367;28;20019;-70
2021/07/26 11:19:36;;;;;;;11.25;6.10;;;32.30;59.40;;;;;;5119063;28;20077;-70
2021/07/26 11:22:25;;;;;;;9.93;5.45;;;32.00;59.90;;;;;;5120361;28;20037;-70
2021/07/26 11:25:11;;;;;;;12.43;5.93;;;31.80;62.60;;;;;;5072506;28;20023;-70
2021/07/26 11:27:37;;;;;;;10.43;4.72;;;32.40;60.60;;;;;;5120193;28;20028;-70
2021/07/26 11:30:04;;;;;;;13.27;5.20;;;33.10;60.70;;;;;;5119961;28;20415;-70
2021/07/26 11:32:30;;;;;;;12.88;5.43;;;33.00;58.00;;;;;;5120088;28;20081;-70
2021/07/26 11:34:57;;;;;;;9.52;4.90;;;32.20;61.10;;;;;;5120025;28;20028;-70
2021/07/26 11:37:37;;;;;;;10.43;5.25;;;31.70;61.60;;;;;;5119918;28;20032;-70
2021/07/26 11:40:08;;;;;;;10.75;5.60;;;31.80;61.50;;;;;;5119369;28;20055;-70
2021/07/26 11:42:36;;;;;;;10.70;5.15;;;32.20;61.50;;;;;;5119929;28;20037;-70
2021/07/26 11:45:03;;;;;;;15.13;4.85;;;32.60;60.30;;;;;;5119800;28;20023;-70
2021/07/26 11:47:35;;;;;;;18.20;5.32;;;32.90;61.10;;;;;;5119449;28;20020;-70
2021/07/26 11:50:06;;;;;;;13.05;5.50;;;33.10;59.90;;;;;;5119642;28;20034;-70
2021/07/26 11:52:32;;;;;;;14.27;5.00;;;33.10;57.10;;;;;;5119373;28;20026;-70
2021/07/26 11:54:58;;;;;;;14.68;5.10;;;32.90;58.80;;;;;;5119598;28;20341;-70
2021/07/26 11:57:24;;;;;;;11.10;4.88;;;33.10;58.10;;;;;;5119581;28;20023;-70
2021/07/26 11:59:54;;;;;;;10.43;4.65;;;33.10;58.40;;;;;;5119416;28;20039;-70
2021/07/26 12:02:25;;;;;;;10.65;4.40;;;32.90;60.00;;;;;;5119208;28;20406;-70
2021/07/26 12:04:51;;;;;;;13.05;5.45;;;32.70;57.40;;;;;;5119436;28;20023;-70
2021/07/26 12:07:37;;;;;;;13.63;5.20;;;32.40;58.50;;;;;;5119028;28;20028;-70
2021/07/26 12:10:03;;;;;;;13.32;5.20;;;31.90;60.80;;;;;;5119313;28;20111;-70
2021/07/26 12:12:36;;;;;;;11.57;4.72;;;31.90;61.60;;;;;;5119300;28;20446;-70
2021/07/26 12:15:21;;;;;;;14.20;5.30;;;32.20;60.30;;;;;;5101126;28;20387;-70
2021/07/26 12:18:09;;;;;;;13.98;5.32;;;32.30;61.50;;;;;;5118974;28;20059;-70
2021/07/26 12:20:40;;;;;;;11.98;5.10;;;32.50;62.70;;;;;;5118721;28;20047;-70
2021/07/26 12:23:15;;;;;;;13.80;5.00;;;32.70;61.80;;;;;;5118790;28;20031;-70
2021/07/26 12:25:55;;;;;;;13.52;5.15;;;32.50;60.80;;;;;;5118693;28;20024;-70
2021/07/26 12:28:22;;;;;;;14.43;5.07;;;32.30;61.40;;;;;;5118601;28;20023;-70
2021/07/26 12:30:51;;;;;;;15.50;5.20;;;32.10;61.50;;;;;;5118670;28;20069;-70
2021/07/26 12:33:30;;;;;;;11.13;4.63;;;32.20;63.20;;;;;;5118901;28;20348;-70
2021/07/26 12:36:16;;;;;;;11.38;5.57;;;31.70;62.00;;;;;;5118423;28;20031;-70
2021/07/26 12:39:04;;;;;;;12.80;4.82;;;31.80;63.80;;;;;;5118400;28;20069;-70
2021/07/26 12:41:31;;;;;;;14.50;4.75;;;31.60;62.70;;;;;;5118367;28;20415;-71
2021/07/26 12:44:14;;;;;;;12.82;5.07;;;31.50;62.90;;;;;;5118357;28;20026;-70
2021/07/26 12:46:49;;;;;;;14.18;5.05;;;31.00;65.50;;;;;;5118655;28;20020;-70
2021/07/26 12:49:16;;;;;;;13.75;4.60;;;30.70;64.10;;;;;;5118497;28;20030;-70